createdAt,value
2022-10-20T00:01:09.064Z,6.36
2022-10-20T00:06:18.645Z,6.16
2022-10-20T00:11:22.446Z,6.09
2022-10-20T00:16:26.260Z,6.08
2022-10-20T00:21:29.210Z,5.68
2022-10-20T00:26:32.549Z,5.75
2022-10-20T00:31:34.808Z,5.66
2022-10-20T00:36:37.223Z,5.64
2022-10-20T00:41:39.739Z,5.55
2022-10-20T00:46:42.552Z,5.49
2022-10-20T00:51:45.087Z,5.56
2022-10-20T00:56:48.551Z,5.48
2022-10-20T01:01:50.973Z,5.35
2022-10-20T01:06:53.245Z,5.26
2022-10-20T01:12:06.097Z,5.28
2022-10-20T01:17:16.726Z,5.03
2022-10-20T01:22:46.581Z,4.92
2022-10-20T01:28:13.353Z,4.70
2022-10-20T01:33:24.806Z,5.01
2022-10-20T01:38:37.810Z,4.79
2022-10-20T01:43:41.856Z,4.54
2022-10-20T01:48:44.862Z,4.58
2022-10-20T01:53:47.228Z,4.66
2022-10-20T01:59:17.094Z,4.61
2022-10-20T02:04:25.134Z,4.56
2022-10-20T02:09:31.695Z,4.56
2022-10-20T02:14:34.081Z,4.44
2022-10-20T02:19:40.301Z,4.36
2022-10-20T02:24:43.991Z,4.29
2022-10-20T02:30:02.851Z,4.15
2022-10-20T02:35:11.020Z,4.20
2022-10-20T02:40:13.695Z,4.15
2022-10-20T02:45:16.296Z,4.07
2022-10-20T02:50:18.715Z,4.08
2022-10-20T02:55:20.995Z,4.00
2022-10-20T03:00:23.355Z,3.99
2022-10-20T03:05:27.128Z,4.02
2022-10-20T03:10:29.522Z,4.08
2022-10-20T03:15:32.103Z,4.00
2022-10-20T03:20:34.727Z,3.89
2022-10-20T03:25:36.995Z,3.87
2022-10-20T03:30:39.283Z,3.80
2022-10-20T03:35:41.542Z,3.68
2022-10-20T03:40:43.938Z,3.68
2022-10-20T03:45:46.230Z,3.71
2022-10-20T03:50:48.541Z,3.66
2022-10-20T03:55:50.869Z,3.60
2022-10-20T04:00:53.184Z,3.57
2022-10-20T04:05:55.448Z,3.50
2022-10-20T04:10:58.710Z,3.49
2022-10-20T04:16:01.005Z,3.46
2022-10-20T04:21:03.416Z,3.40
2022-10-20T04:26:13.190Z,3.42
2022-10-20T04:31:15.465Z,3.50
2022-10-20T04:36:17.869Z,3.37
2022-10-20T04:41:20.187Z,3.40
2022-10-20T04:46:22.551Z,3.34
2022-10-20T04:51:24.895Z,3.27
2022-10-20T04:56:27.263Z,3.40
2022-10-20T05:01:30.817Z,3.34
2022-10-20T05:06:34.277Z,3.25
2022-10-20T05:11:37.354Z,3.30
2022-10-20T05:16:39.690Z,3.34
2022-10-20T05:26:49.345Z,3.25
2022-10-20T05:31:51.622Z,3.36
2022-10-20T05:36:54.522Z,3.33
2022-10-20T05:41:56.796Z,3.40
2022-10-20T05:46:59.042Z,3.33
2022-10-20T05:52:01.336Z,3.36
2022-10-20T05:57:03.680Z,3.53
2022-10-20T06:02:06.131Z,3.54
2022-10-20T06:07:11.587Z,3.65
2022-10-20T06:12:13.899Z,3.72
2022-10-20T06:17:16.248Z,3.96
2022-10-20T06:22:18.624Z,4.17
2022-10-20T06:27:20.883Z,4.50
2022-10-20T06:32:23.114Z,4.59
2022-10-20T06:37:25.341Z,4.92
2022-10-20T06:42:28.735Z,5.36
2022-10-20T06:47:31.511Z,5.63
2022-10-20T06:52:34.039Z,5.73
2022-10-20T06:57:36.613Z,5.99
2022-10-20T07:02:39.898Z,6.13
2022-10-20T07:07:42.232Z,6.16
2022-10-20T07:12:44.612Z,6.17
2022-10-20T07:17:48.995Z,6.25
2022-10-20T07:22:51.229Z,6.17
2022-10-20T07:27:55.072Z,6.13
2022-10-20T07:32:57.371Z,6.13
2022-10-20T07:37:59.714Z,6.45
2022-10-20T07:43:01.965Z,6.69
2022-10-20T07:48:04.492Z,6.98
2022-10-20T07:53:06.901Z,7.06
2022-10-20T07:58:09.749Z,7.39
2022-10-20T08:03:12.577Z,7.48
2022-10-20T08:08:14.883Z,7.82
2022-10-20T08:13:17.133Z,8.11
2022-10-20T08:18:23.799Z,8.29
2022-10-20T08:23:26.135Z,8.52
2022-10-20T08:28:28.471Z,8.59
2022-10-20T08:33:30.785Z,8.75
2022-10-20T08:38:33.092Z,8.99
2022-10-20T08:43:37.249Z,9.20
2022-10-20T08:48:39.590Z,9.46
2022-10-20T08:53:42.004Z,9.77
2022-10-20T08:58:45.546Z,10.03
2022-10-20T09:03:52.046Z,10.25
2022-10-20T09:08:55.667Z,9.76
2022-10-20T09:13:58.262Z,10.00
2022-10-20T09:19:01.509Z,10.15
2022-10-20T09:24:07.654Z,10.24
2022-10-20T09:29:21.539Z,10.55
2022-10-20T09:34:27.234Z,10.68
2022-10-20T09:39:32.033Z,11.12
2022-10-20T09:44:38.447Z,11.29
2022-10-20T09:49:41.004Z,11.23
2022-10-20T09:54:47.396Z,11.18
2022-10-20T09:59:51.739Z,11.22
2022-10-20T10:04:55.125Z,11.17
2022-10-20T10:10:03.951Z,11.35
2022-10-20T10:15:31.451Z,11.50
2022-10-20T10:20:40.483Z,11.64
2022-10-20T10:25:42.764Z,11.62
2022-10-20T10:30:46.989Z,11.94
2022-10-20T10:35:51.886Z,12.01
2022-10-20T10:41:23.314Z,12.27
2022-10-20T10:46:37.033Z,12.38
2022-10-20T10:51:45.285Z,12.51
2022-10-20T10:56:47.520Z,12.52
2022-10-20T11:02:20.221Z,12.70
2022-10-20T11:07:44.097Z,12.80
2022-10-20T11:13:11.122Z,12.72
2022-10-20T11:18:30.853Z,13.09
2022-10-20T11:23:51.985Z,13.02
2022-10-20T11:28:56.418Z,13.30
2022-10-20T11:34:30.171Z,13.34
2022-10-20T11:39:43.744Z,13.07
2022-10-20T11:44:46.683Z,13.49
2022-10-20T11:49:48.980Z,13.46
2022-10-20T11:54:51.213Z,13.51
2022-10-20T11:59:59.575Z,13.73
2022-10-20T12:05:04.585Z,13.66
2022-10-20T12:10:28.753Z,14.00
2022-10-20T12:15:31.298Z,14.03
2022-10-20T12:20:39.533Z,14.22
2022-10-20T12:25:41.950Z,14.00
2022-10-20T12:30:45.175Z,13.93
2022-10-20T12:36:19.503Z,14.07
2022-10-20T12:41:30.680Z,13.95
2022-10-20T12:46:35.247Z,13.93
2022-10-20T12:51:49.595Z,14.38
2022-10-20T12:56:53.343Z,14.43
2022-10-20T13:02:10.772Z,14.66
2022-10-20T13:07:13.078Z,14.93
2022-10-20T13:12:29.050Z,14.78
2022-10-20T13:17:38.307Z,14.66
2022-10-20T13:23:09.176Z,14.98
2022-10-20T13:28:14.495Z,14.84
2022-10-20T13:33:38.400Z,14.96
2022-10-20T13:39:18.098Z,14.77
2022-10-20T13:44:40.605Z,14.27
2022-10-20T13:49:54.806Z,14.13
2022-10-20T13:54:58.295Z,14.47
2022-10-20T14:00:06.236Z,14.76
2022-10-20T14:05:12.661Z,14.59
2022-10-20T14:10:23.682Z,14.71
2022-10-20T14:15:32.692Z,15.21
2022-10-20T14:20:37.884Z,14.79
2022-10-20T14:25:40.475Z,13.92
2022-10-20T14:30:42.989Z,13.34
2022-10-20T14:35:54.356Z,12.98
2022-10-20T14:40:58.514Z,12.90
2022-10-20T14:46:01.920Z,13.35
2022-10-20T14:51:33.138Z,13.32
2022-10-20T14:56:44.067Z,13.37
2022-10-20T15:02:02.636Z,13.14
2022-10-20T15:07:24.113Z,12.85
2022-10-20T15:12:32.131Z,12.49
2022-10-20T15:17:44.446Z,12.18
2022-10-20T15:22:52.243Z,11.79
2022-10-20T15:27:57.620Z,11.44
2022-10-20T15:32:59.987Z,11.11
2022-10-20T15:38:02.829Z,10.71
2022-10-20T15:43:05.770Z,10.50
2022-10-20T15:48:08.174Z,10.26
2022-10-20T15:53:11.682Z,10.09
2022-10-20T15:58:14.429Z,9.73
2022-10-20T16:03:18.807Z,9.45
2022-10-20T16:08:21.208Z,9.32
2022-10-20T16:13:23.738Z,9.19
2022-10-20T16:18:26.257Z,8.97
2022-10-20T16:23:28.640Z,8.87
2022-10-20T16:28:31.028Z,8.74
2022-10-20T16:33:33.796Z,8.61
2022-10-20T16:38:39.936Z,8.52
2022-10-20T16:43:45.530Z,8.36
2022-10-20T16:48:48.547Z,8.17
2022-10-20T16:53:51.340Z,8.19
2022-10-20T16:58:53.726Z,8.14
2022-10-20T17:03:56.099Z,8.16
2022-10-20T17:08:59.961Z,8.15
2022-10-20T17:14:02.658Z,8.06
2022-10-20T17:19:05.413Z,7.97
2022-10-20T17:24:11.922Z,7.98
2022-10-20T17:29:14.513Z,7.67
2022-10-20T17:34:17.735Z,7.64
2022-10-20T17:39:22.170Z,7.60
2022-10-20T17:44:24.503Z,7.54
2022-10-20T17:49:27.989Z,7.50
2022-10-20T17:54:30.391Z,7.48
2022-10-20T17:59:38.244Z,7.40
2022-10-20T18:04:51.242Z,7.35
2022-10-20T18:09:54.048Z,7.39
2022-10-20T18:14:56.530Z,7.40
2022-10-20T18:20:00.235Z,7.38
2022-10-20T18:25:02.783Z,7.43
2022-10-20T18:30:05.644Z,7.45
2022-10-20T18:35:08.464Z,7.23
2022-10-20T18:40:11.415Z,7.27
2022-10-20T18:45:13.906Z,7.14
2022-10-20T18:50:16.471Z,7.01
2022-10-20T18:55:18.975Z,6.99
2022-10-20T19:00:21.405Z,6.93
2022-10-20T19:05:24.059Z,6.90
2022-10-20T19:10:26.374Z,6.82
2022-10-20T19:15:28.792Z,6.74
2022-10-20T19:20:31.532Z,6.79
2022-10-20T19:25:34.029Z,6.70
2022-10-20T19:30:36.462Z,6.75
2022-10-20T19:35:39.096Z,6.73
2022-10-20T19:40:41.429Z,6.77
2022-10-20T19:45:47.768Z,6.86
2022-10-20T19:50:52.468Z,6.72
2022-10-20T19:55:55.274Z,6.69
2022-10-20T20:00:59.848Z,6.73
2022-10-20T20:06:22.671Z,6.71
2022-10-20T20:11:30.851Z,6.66
2022-10-20T20:16:33.247Z,6.64
2022-10-20T20:21:35.672Z,6.57
2022-10-20T20:26:38.278Z,6.68
2022-10-20T20:31:40.726Z,6.53
2022-10-20T20:36:43.153Z,6.60
2022-10-20T20:41:47.119Z,6.53
2022-10-20T20:46:49.502Z,6.61
2022-10-20T20:51:51.864Z,6.50
2022-10-20T20:56:54.164Z,6.65
2022-10-20T21:01:56.791Z,6.51
2022-10-20T21:07:03.076Z,6.49
2022-10-20T21:12:05.815Z,6.48
2022-10-20T21:17:08.223Z,6.48
2022-10-20T21:22:10.627Z,6.54
2022-10-20T21:27:12.999Z,6.38
2022-10-20T21:32:18.499Z,6.43
2022-10-20T21:37:20.881Z,6.39
2022-10-20T21:42:23.191Z,6.31
2022-10-20T21:47:25.506Z,6.26
2022-10-20T21:52:27.859Z,6.25
2022-10-20T21:57:30.247Z,6.12
2022-10-20T22:02:32.594Z,6.08
2022-10-20T22:07:35.172Z,6.09
2022-10-20T22:12:37.733Z,6.01
2022-10-20T22:17:40.467Z,6.04
2022-10-20T22:22:43.002Z,6.07
2022-10-20T22:27:46.426Z,5.97
2022-10-20T22:32:48.811Z,5.96
2022-10-20T22:37:51.249Z,5.92
2022-10-20T22:42:53.563Z,5.98
2022-10-20T22:47:55.928Z,6.01
2022-10-20T22:52:58.339Z,5.91
2022-10-20T22:58:00.738Z,5.87
2022-10-20T23:03:03.301Z,5.81
2022-10-20T23:08:06.435Z,5.98
2022-10-20T23:13:08.745Z,5.84
2022-10-20T23:18:11.041Z,5.85
2022-10-20T23:23:13.369Z,5.87
2022-10-20T23:28:15.726Z,5.83
2022-10-20T23:33:18.103Z,5.98
2022-10-20T23:38:20.373Z,5.97
2022-10-20T23:43:22.861Z,6.12
2022-10-20T23:48:25.643Z,6.05
2022-10-20T23:53:28.076Z,6.02
2022-10-20T23:58:30.457Z,6.03
